sensor_id;sensor_type;location;lat;lon;timestamp;P1;durP1;ratioP1;P2;durP2;ratioP2
1537;SDS011;12022;52.266;10.522;2022-07-06T00:00:51;0.40;;;0.40;;
1537;SDS011;12022;52.266;10.522;2022-07-06T00:03:18;0.40;;;0.40;;
1537;SDS011;12022;52.266;10.522;2022-07-06T00:05:45;0.40;;;0.40;;
1537;SDS011;12022;52.266;10.522;2022-07-06T00:08:12;0.40;;;0.40;;
1537;SDS011;12022;52.266;10.522;2022-07-06T00:10:39;0.40;;;0.40;;
1537;SDS011;12022;52.266;10.522;2022-07-06T00:13:05;0.40;;;0.40;;
1537;SDS011;12022;52.266;10.522;2022-07-06T00:15:32;0.50;;;0.50;;
1537;SDS011;12022;52.266;10.522;2022-07-06T00:17:59;0.40;;;0.40;;
1537;SDS011;12022;52.266;10.522;2022-07-06T00:20:27;0.50;;;0.50;;
1537;SDS011;12022;52.266;10.522;2022-07-06T00:22:53;0.57;;;0.57;;
1537;SDS011;12022;52.266;10.522;2022-07-06T00:25:20;0.50;;;0.50;;
1537;SDS011;12022;52.266;10.522;2022-07-06T00:27:47;0.50;;;0.50;;
1537;SDS011;12022;52.266;10.522;2022-07-06T00:30:14;0.50;;;0.50;;
1537;SDS011;12022;52.266;10.522;2022-07-06T00:32:41;0.50;;;0.50;;
1537;SDS011;12022;52.266;10.522;2022-07-06T00:35:08;0.47;;;0.47;;
1537;SDS011;12022;52.266;10.522;2022-07-06T00:37:35;0.50;;;0.50;;
1537;SDS011;12022;52.266;10.522;2022-07-06T00:40:02;0.50;;;0.50;;
1537;SDS011;12022;52.266;10.522;2022-07-06T00:42:30;0.40;;;0.40;;
1537;SDS011;12022;52.266;10.522;2022-07-06T00:45:04;0.50;;;0.50;;
1537;SDS011;12022;52.266;10.522;2022-07-06T00:47:32;0.43;;;0.43;;
1537;SDS011;12022;52.266;10.522;2022-07-06T00:49:58;0.40;;;0.40;;
1537;SDS011;12022;52.266;10.522;2022-07-06T00:52:42;0.40;;;0.40;;
1537;SDS011;12022;52.266;10.522;2022-07-06T00:55:11;0.40;;;0.40;;
1537;SDS011;12022;52.266;10.522;2022-07-06T00:57:39;0.43;;;0.43;;
1537;SDS011;12022;52.266;10.522;2022-07-06T01:00:07;0.40;;;0.40;;
1537;SDS011;12022;52.266;10.522;2022-07-06T01:02:36;0.40;;;0.40;;
1537;SDS011;12022;52.266;10.522;2022-07-06T01:05:03;0.40;;;0.40;;
1537;SDS011;12022;52.266;10.522;2022-07-06T01:07:31;0.40;;;0.40;;
1537;SDS011;12022;52.266;10.522;2022-07-06T01:09:58;0.40;;;0.40;;
1537;SDS011;12022;52.266;10.522;2022-07-06T01:12:25;0.50;;;0.50;;
1537;SDS011;12022;52.266;10.522;2022-07-06T01:14:52;0.40;;;0.40;;
1537;SDS011;12022;52.266;10.522;2022-07-06T01:17:19;0.30;;;0.30;;
1537;SDS011;12022;52.266;10.522;2022-07-06T01:19:47;0.40;;;0.40;;
1537;SDS011;12022;52.266;10.522;2022-07-06T01:22:14;0.40;;;0.40;;
1537;SDS011;12022;52.266;10.522;2022-07-06T01:24:41;0.40;;;0.40;;
1537;SDS011;12022;52.266;10.522;2022-07-06T01:27:08;0.40;;;0.40;;
1537;SDS011;12022;52.266;10.522;2022-07-06T01:29:35;0.40;;;0.40;;
1537;SDS011;12022;52.266;10.522;2022-07-06T01:32:03;0.40;;;0.40;;
1537;SDS011;12022;52.266;10.522;2022-07-06T01:34:30;0.30;;;0.30;;
1537;SDS011;12022;52.266;10.522;2022-07-06T01:36:57;0.40;;;0.40;;
1537;SDS011;12022;52.266;10.522;2022-07-06T01:39:24;0.40;;;0.40;;
1537;SDS011;12022;52.266;10.522;2022-07-06T01:41:51;0.40;;;0.40;;
1537;SDS011;12022;52.266;10.522;2022-07-06T01:44:18;0.40;;;0.40;;
1537;SDS011;12022;52.266;10.522;2022-07-06T01:46:45;0.40;;;0.40;;
1537;SDS011;12022;52.266;10.522;2022-07-06T01:49:11;0.40;;;0.40;;
1537;SDS011;12022;52.266;10.522;2022-07-06T01:51:39;0.40;;;0.40;;
1537;SDS011;12022;52.266;10.522;2022-07-06T01:54:06;0.40;;;0.30;;
1537;SDS011;12022;52.266;10.522;2022-07-06T01:56:33;0.40;;;0.40;;
1537;SDS011;12022;52.266;10.522;2022-07-06T01:58:59;0.40;;;0.40;;
1537;SDS011;12022;52.266;10.522;2022-07-06T02:01:26;0.40;;;0.30;;
1537;SDS011;12022;52.266;10.522;2022-07-06T02:03:53;0.40;;;0.40;;
1537;SDS011;12022;52.266;10.522;2022-07-06T02:06:20;0.40;;;0.30;;
1537;SDS011;12022;52.266;10.522;2022-07-06T02:08:47;0.40;;;0.40;;
1537;SDS011;12022;52.266;10.522;2022-07-06T02:11:14;0.40;;;0.40;;
1537;SDS011;12022;52.266;10.522;2022-07-06T02:13:41;0.40;;;0.30;;
1537;SDS011;12022;52.266;10.522;2022-07-06T02:16:08;0.40;;;0.40;;
1537;SDS011;12022;52.266;10.522;2022-07-06T02:18:36;0.40;;;0.40;;
1537;SDS011;12022;52.266;10.522;2022-07-06T02:21:03;0.50;;;0.50;;
1537;SDS011;12022;52.266;10.522;2022-07-06T02:23:31;0.40;;;0.40;;
1537;SDS011;12022;52.266;10.522;2022-07-06T02:25:58;0.40;;;0.40;;
1537;SDS011;12022;52.266;10.522;2022-07-06T02:28:25;0.40;;;0.40;;
1537;SDS011;12022;52.266;10.522;2022-07-06T02:30:52;0.40;;;0.40;;
1537;SDS011;12022;52.266;10.522;2022-07-06T02:33:19;0.40;;;0.40;;
1537;SDS011;12022;52.266;10.522;2022-07-06T02:35:46;0.40;;;0.40;;
1537;SDS011;12022;52.266;10.522;2022-07-06T02:38:13;0.30;;;0.30;;
1537;SDS011;12022;52.266;10.522;2022-07-06T02:40:40;0.43;;;0.43;;
1537;SDS011;12022;52.266;10.522;2022-07-06T02:43:07;0.40;;;0.40;;
1537;SDS011;12022;52.266;10.522;2022-07-06T02:45:35;0.40;;;0.40;;
1537;SDS011;12022;52.266;10.522;2022-07-06T02:48:02;0.40;;;0.40;;
1537;SDS011;12022;52.266;10.522;2022-07-06T02:50:29;0.40;;;0.40;;
1537;SDS011;12022;52.266;10.522;2022-07-06T02:52:56;0.40;;;0.40;;
1537;SDS011;12022;52.266;10.522;2022-07-06T02:55:24;0.40;;;0.40;;
1537;SDS011;12022;52.266;10.522;2022-07-06T02:57:51;0.30;;;0.30;;
1537;SDS011;12022;52.266;10.522;2022-07-06T03:00:18;0.30;;;0.30;;
1537;SDS011;12022;52.266;10.522;2022-07-06T03:02:45;0.40;;;0.40;;
1537;SDS011;12022;52.266;10.522;2022-07-06T03:05:12;0.40;;;0.40;;
1537;SDS011;12022;52.266;10.522;2022-07-06T03:07:39;0.40;;;0.40;;
1537;SDS011;12022;52.266;10.522;2022-07-06T03:10:06;0.40;;;0.40;;
1537;SDS011;12022;52.266;10.522;2022-07-06T03:12:33;0.50;;;0.50;;
1537;SDS011;12022;52.266;10.522;2022-07-06T03:15:00;0.50;;;0.50;;
1537;SDS011;12022;52.266;10.522;2022-07-06T03:17:27;0.50;;;0.50;;
1537;SDS011;12022;52.266;10.522;2022-07-06T03:19:54;0.40;;;0.40;;
1537;SDS011;12022;52.266;10.522;2022-07-06T03:22:21;0.40;;;0.40;;
1537;SDS011;12022;52.266;10.522;2022-07-06T03:24:48;0.50;;;0.50;;
1537;SDS011;12022;52.266;10.522;2022-07-06T03:27:15;0.40;;;0.40;;
1537;SDS011;12022;52.266;10.522;2022-07-06T03:29:42;0.40;;;0.40;;
1537;SDS011;12022;52.266;10.522;2022-07-06T03:32:09;0.40;;;0.40;;
1537;SDS011;12022;52.266;10.522;2022-07-06T03:34:36;0.50;;;0.50;;
1537;SDS011;12022;52.266;10.522;2022-07-06T03:37:03;0.40;;;0.40;;
1537;SDS011;12022;52.266;10.522;2022-07-06T03:39:30;0.40;;;0.40;;
1537;SDS011;12022;52.266;10.522;2022-07-06T03:41:57;0.40;;;0.40;;
1537;SDS011;12022;52.266;10.522;2022-07-06T03:44:24;0.40;;;0.40;;
1537;SDS011;12022;52.266;10.522;2022-07-06T03:46:51;0.30;;;0.30;;
1537;SDS011;12022;52.266;10.522;2022-07-06T03:49:21;0.40;;;0.40;;
1537;SDS011;12022;52.266;10.522;2022-07-06T03:51:50;0.40;;;0.40;;
1537;SDS011;12022;52.266;10.522;2022-07-06T03:54:17;0.40;;;0.40;;
1537;SDS011;12022;52.266;10.522;2022-07-06T03:56:44;0.50;;;0.50;;
1537;SDS011;12022;52.266;10.522;2022-07-06T03:59:11;0.40;;;0.40;;
1537;SDS011;12022;52.266;10.522;2022-07-06T04:01:39;0.40;;;0.40;;
1537;SDS011;12022;52.266;10.522;2022-07-06T04:04:07;0.40;;;0.40;;
1537;SDS011;12022;52.266;10.522;2022-07-06T04:06:34;0.40;;;0.40;;
1537;SDS011;12022;52.266;10.522;2022-07-06T04:09:01;0.43;;;0.43;;
1537;SDS011;12022;52.266;10.522;2022-07-06T04:11:28;0.43;;;0.43;;
1537;SDS011;12022;52.266;10.522;2022-07-06T04:13:55;0.43;;;0.43;;
1537;SDS011;12022;52.266;10.522;2022-07-06T04:16:22;0.40;;;0.40;;
1537;SDS011;12022;52.266;10.522;2022-07-06T04:18:49;0.40;;;0.40;;
1537;SDS011;12022;52.266;10.522;2022-07-06T04:21:16;0.40;;;0.40;;
1537;SDS011;12022;52.266;10.522;2022-07-06T04:23:43;0.40;;;0.40;;
1537;SDS011;12022;52.266;10.522;2022-07-06T04:26:10;0.50;;;0.50;;
1537;SDS011;12022;52.266;10.522;2022-07-06T04:28:38;0.40;;;0.40;;
1537;SDS011;12022;52.266;10.522;2022-07-06T04:31:05;0.40;;;0.40;;
1537;SDS011;12022;52.266;10.522;2022-07-06T04:33:32;0.43;;;0.43;;
1537;SDS011;12022;52.266;10.522;2022-07-06T04:35:59;0.40;;;0.40;;
1537;SDS011;12022;52.266;10.522;2022-07-06T04:38:26;0.40;;;0.40;;
1537;SDS011;12022;52.266;10.522;2022-07-06T04:40:53;0.47;;;0.47;;
1537;SDS011;12022;52.266;10.522;2022-07-06T04:43:20;0.50;;;0.50;;
1537;SDS011;12022;52.266;10.522;2022-07-06T04:45:47;0.50;;;0.50;;
1537;SDS011;12022;52.266;10.522;2022-07-06T04:48:14;0.40;;;0.40;;
1537;SDS011;12022;52.266;10.522;2022-07-06T04:50:41;0.40;;;0.40;;
1537;SDS011;12022;52.266;10.522;2022-07-06T04:53:08;0.50;;;0.50;;
1537;SDS011;12022;52.266;10.522;2022-07-06T04:55:35;0.50;;;0.50;;
1537;SDS011;12022;52.266;10.522;2022-07-06T04:58:02;0.50;;;0.50;;
1537;SDS011;12022;52.266;10.522;2022-07-06T05:00:29;0.50;;;0.50;;
1537;SDS011;12022;52.266;10.522;2022-07-06T05:02:56;0.40;;;0.40;;
1537;SDS011;12022;52.266;10.522;2022-07-06T05:05:23;0.60;;;0.60;;
1537;SDS011;12022;52.266;10.522;2022-07-06T05:07:50;0.60;;;0.60;;
1537;SDS011;12022;52.266;10.522;2022-07-06T05:10:17;0.50;;;0.50;;
1537;SDS011;12022;52.266;10.522;2022-07-06T05:12:44;0.60;;;0.60;;
1537;SDS011;12022;52.266;10.522;2022-07-06T05:15:11;0.60;;;0.60;;
1537;SDS011;12022;52.266;10.522;2022-07-06T05:17:38;0.57;;;0.57;;
1537;SDS011;12022;52.266;10.522;2022-07-06T05:20:06;0.50;;;0.50;;
1537;SDS011;12022;52.266;10.522;2022-07-06T05:22:33;0.60;;;0.60;;
1537;SDS011;12022;52.266;10.522;2022-07-06T05:25:00;0.60;;;0.60;;
1537;SDS011;12022;52.266;10.522;2022-07-06T05:27:27;0.80;;;0.80;;
1537;SDS011;12022;52.266;10.522;2022-07-06T05:29:54;0.90;;;0.90;;
1537;SDS011;12022;52.266;10.522;2022-07-06T05:32:21;1.40;;;1.40;;
1537;SDS011;12022;52.266;10.522;2022-07-06T05:34:49;0.67;;;0.67;;
1537;SDS011;12022;52.266;10.522;2022-07-06T05:37:17;0.70;;;0.70;;
1537;SDS011;12022;52.266;10.522;2022-07-06T05:39:44;0.70;;;0.70;;
1537;SDS011;12022;52.266;10.522;2022-07-06T05:42:13;0.70;;;0.70;;
1537;SDS011;12022;52.266;10.522;2022-07-06T05:44:40;0.73;;;0.73;;
1537;SDS011;12022;52.266;10.522;2022-07-06T05:47:07;0.80;;;0.80;;
1537;SDS011;12022;52.266;10.522;2022-07-06T05:49:52;0.57;;;0.57;;
1537;SDS011;12022;52.266;10.522;2022-07-06T05:52:38;0.70;;;0.70;;
1537;SDS011;12022;52.266;10.522;2022-07-06T05:55:09;0.70;;;0.70;;
1537;SDS011;12022;52.266;10.522;2022-07-06T05:57:37;0.60;;;0.60;;
1537;SDS011;12022;52.266;10.522;2022-07-06T06:00:06;0.60;;;0.60;;
1537;SDS011;12022;52.266;10.522;2022-07-06T06:02:36;0.80;;;0.80;;
1537;SDS011;12022;52.266;10.522;2022-07-06T06:05:07;0.63;;;0.63;;
1537;SDS011;12022;52.266;10.522;2022-07-06T06:07:36;0.60;;;0.60;;
1537;SDS011;12022;52.266;10.522;2022-07-06T06:10:04;0.60;;;0.60;;
1537;SDS011;12022;52.266;10.522;2022-07-06T06:12:35;0.80;;;0.80;;
1537;SDS011;12022;52.266;10.522;2022-07-06T06:15:02;0.43;;;0.43;;
1537;SDS011;12022;52.266;10.522;2022-07-06T06:17:30;0.70;;;0.70;;
1537;SDS011;12022;52.266;10.522;2022-07-06T06:19:58;0.70;;;0.70;;
1537;SDS011;12022;52.266;10.522;2022-07-06T06:22:26;0.70;;;0.70;;
1537;SDS011;12022;52.266;10.522;2022-07-06T06:24:53;0.60;;;0.60;;
1537;SDS011;12022;52.266;10.522;2022-07-06T06:27:19;0.70;;;0.70;;
1537;SDS011;12022;52.266;10.522;2022-07-06T06:29:46;1.70;;;1.70;;
1537;SDS011;12022;52.266;10.522;2022-07-06T06:32:13;1.23;;;1.23;;
1537;SDS011;12022;52.266;10.522;2022-07-06T06:34:40;0.97;;;0.97;;
1537;SDS011;12022;52.266;10.522;2022-07-06T06:37:07;1.20;;;1.20;;
1537;SDS011;12022;52.266;10.522;2022-07-06T06:39:34;1.23;;;1.23;;
1537;SDS011;12022;52.266;10.522;2022-07-06T06:42:01;0.70;;;0.70;;
1537;SDS011;12022;52.266;10.522;2022-07-06T06:44:28;0.93;;;0.93;;
1537;SDS011;12022;52.266;10.522;2022-07-06T06:46:55;0.90;;;0.90;;
1537;SDS011;12022;52.266;10.522;2022-07-06T06:49:22;1.40;;;1.40;;
1537;SDS011;12022;52.266;10.522;2022-07-06T06:51:49;1.10;;;1.10;;
1537;SDS011;12022;52.266;10.522;2022-07-06T06:54:16;1.03;;;1.03;;
1537;SDS011;12022;52.266;10.522;2022-07-06T06:56:43;2.93;;;2.90;;
1537;SDS011;12022;52.266;10.522;2022-07-06T06:59:10;1.03;;;1.03;;
1537;SDS011;12022;52.266;10.522;2022-07-06T07:01:43;1.60;;;1.60;;
1537;SDS011;12022;52.266;10.522;2022-07-06T07:04:10;1.37;;;1.37;;
1537;SDS011;12022;52.266;10.522;2022-07-06T07:06:38;1.53;;;1.53;;
1537;SDS011;12022;52.266;10.522;2022-07-06T07:09:05;0.70;;;0.70;;
1537;SDS011;12022;52.266;10.522;2022-07-06T07:11:32;1.10;;;1.10;;
1537;SDS011;12022;52.266;10.522;2022-07-06T07:13:59;1.00;;;1.00;;
1537;SDS011;12022;52.266;10.522;2022-07-06T07:16:27;0.80;;;0.80;;
1537;SDS011;12022;52.266;10.522;2022-07-06T07:18:54;0.70;;;0.70;;
1537;SDS011;12022;52.266;10.522;2022-07-06T07:21:21;0.80;;;0.80;;
1537;SDS011;12022;52.266;10.522;2022-07-06T07:23:48;0.60;;;0.60;;
1537;SDS011;12022;52.266;10.522;2022-07-06T07:26:16;0.50;;;0.50;;
1537;SDS011;12022;52.266;10.522;2022-07-06T07:28:43;0.80;;;0.80;;
1537;SDS011;12022;52.266;10.522;2022-07-06T07:31:10;0.60;;;0.60;;
1537;SDS011;12022;52.266;10.522;2022-07-06T07:33:37;0.63;;;0.63;;
1537;SDS011;12022;52.266;10.522;2022-07-06T07:36:04;0.63;;;0.63;;
1537;SDS011;12022;52.266;10.522;2022-07-06T07:38:32;1.10;;;1.10;;
1537;SDS011;12022;52.266;10.522;2022-07-06T07:40:59;1.00;;;1.00;;
1537;SDS011;12022;52.266;10.522;2022-07-06T07:43:26;1.00;;;1.00;;
1537;SDS011;12022;52.266;10.522;2022-07-06T07:45:53;0.70;;;0.70;;
1537;SDS011;12022;52.266;10.522;2022-07-06T07:48:20;0.90;;;0.90;;
1537;SDS011;12022;52.266;10.522;2022-07-06T07:50:47;0.60;;;0.60;;
1537;SDS011;12022;52.266;10.522;2022-07-06T07:53:14;0.70;;;0.70;;
1537;SDS011;12022;52.266;10.522;2022-07-06T07:55:41;0.60;;;0.60;;
1537;SDS011;12022;52.266;10.522;2022-07-06T07:58:08;0.80;;;0.80;;
1537;SDS011;12022;52.266;10.522;2022-07-06T08:00:35;1.07;;;1.07;;
1537;SDS011;12022;52.266;10.522;2022-07-06T08:03:03;0.83;;;0.83;;
1537;SDS011;12022;52.266;10.522;2022-07-06T08:05:30;0.70;;;0.70;;
1537;SDS011;12022;52.266;10.522;2022-07-06T08:07:57;0.70;;;0.70;;
1537;SDS011;12022;52.266;10.522;2022-07-06T08:10:24;0.63;;;0.63;;
1537;SDS011;12022;52.266;10.522;2022-07-06T08:12:51;0.60;;;0.60;;
1537;SDS011;12022;52.266;10.522;2022-07-06T08:15:18;0.90;;;0.90;;
1537;SDS011;12022;52.266;10.522;2022-07-06T08:17:45;0.63;;;0.63;;
1537;SDS011;12022;52.266;10.522;2022-07-06T08:20:12;0.73;;;0.73;;
1537;SDS011;12022;52.266;10.522;2022-07-06T08:22:39;0.90;;;0.90;;
1537;SDS011;12022;52.266;10.522;2022-07-06T08:25:07;0.60;;;0.60;;
1537;SDS011;12022;52.266;10.522;2022-07-06T08:27:35;1.10;;;1.10;;
1537;SDS011;12022;52.266;10.522;2022-07-06T08:30:03;0.70;;;0.70;;
1537;SDS011;12022;52.266;10.522;2022-07-06T08:32:30;0.70;;;0.70;;
1537;SDS011;12022;52.266;10.522;2022-07-06T08:35:18;0.60;;;0.60;;
1537;SDS011;12022;52.266;10.522;2022-07-06T08:37:45;0.60;;;0.60;;
1537;SDS011;12022;52.266;10.522;2022-07-06T08:40:12;0.60;;;0.60;;
1537;SDS011;12022;52.266;10.522;2022-07-06T08:42:39;0.70;;;0.70;;
1537;SDS011;12022;52.266;10.522;2022-07-06T08:45:06;0.80;;;0.80;;
1537;SDS011;12022;52.266;10.522;2022-07-06T08:47:35;0.70;;;0.70;;
1537;SDS011;12022;52.266;10.522;2022-07-06T08:50:03;0.70;;;0.70;;
1537;SDS011;12022;52.266;10.522;2022-07-06T08:52:30;0.70;;;0.70;;
1537;SDS011;12022;52.266;10.522;2022-07-06T08:54:58;0.70;;;0.70;;
1537;SDS011;12022;52.266;10.522;2022-07-06T08:57:26;0.70;;;0.70;;
1537;SDS011;12022;52.266;10.522;2022-07-06T08:59:53;1.20;;;1.20;;
1537;SDS011;12022;52.266;10.522;2022-07-06T09:02:22;0.80;;;0.80;;
1537;SDS011;12022;52.266;10.522;2022-07-06T09:04:51;0.50;;;0.50;;
1537;SDS011;12022;52.266;10.522;2022-07-06T09:07:21;0.70;;;0.70;;
1537;SDS011;12022;52.266;10.522;2022-07-06T09:10:09;0.90;;;0.90;;
1537;SDS011;12022;52.266;10.522;2022-07-06T09:12:36;1.20;;;1.20;;
1537;SDS011;12022;52.266;10.522;2022-07-06T09:15:03;1.50;;;1.50;;
1537;SDS011;12022;52.266;10.522;2022-07-06T09:17:30;1.30;;;1.30;;
1537;SDS011;12022;52.266;10.522;2022-07-06T09:19:57;1.20;;;1.20;;
1537;SDS011;12022;52.266;10.522;2022-07-06T09:22:31;1.10;;;1.10;;
1537;SDS011;12022;52.266;10.522;2022-07-06T09:25:05;2.03;;;2.03;;
1537;SDS011;12022;52.266;10.522;2022-07-06T09:27:41;0.90;;;0.90;;
1537;SDS011;12022;52.266;10.522;2022-07-06T09:30:10;0.90;;;0.90;;
1537;SDS011;12022;52.266;10.522;2022-07-06T09:32:38;0.80;;;0.80;;
1537;SDS011;12022;52.266;10.522;2022-07-06T09:35:07;0.80;;;0.80;;
1537;SDS011;12022;52.266;10.522;2022-07-06T09:37:45;1.17;;;1.17;;
1537;SDS011;12022;52.266;10.522;2022-07-06T09:40:17;0.97;;;0.97;;
1537;SDS011;12022;52.266;10.522;2022-07-06T09:42:45;1.30;;;1.30;;
1537;SDS011;12022;52.266;10.522;2022-07-06T09:45:12;2.20;;;2.20;;
1537;SDS011;12022;52.266;10.522;2022-07-06T09:47:41;1.00;;;1.00;;
1537;SDS011;12022;52.266;10.522;2022-07-06T09:50:15;2.43;;;2.43;;
1537;SDS011;12022;52.266;10.522;2022-07-06T09:52:53;1.40;;;1.40;;
1537;SDS011;12022;52.266;10.522;2022-07-06T09:55:21;1.60;;;1.60;;
1537;SDS011;12022;52.266;10.522;2022-07-06T09:57:52;1.13;;;1.13;;
1537;SDS011;12022;52.266;10.522;2022-07-06T10:00:21;1.30;;;1.30;;
1537;SDS011;12022;52.266;10.522;2022-07-06T10:02:48;1.13;;;1.13;;
1537;SDS011;12022;52.266;10.522;2022-07-06T10:05:21;1.10;;;1.10;;
1537;SDS011;12022;52.266;10.522;2022-07-06T10:07:56;1.07;;;1.07;;
1537;SDS011;12022;52.266;10.522;2022-07-06T10:10:25;1.20;;;1.20;;
1537;SDS011;12022;52.266;10.522;2022-07-06T10:12:56;1.10;;;1.10;;
1537;SDS011;12022;52.266;10.522;2022-07-06T10:15:24;1.63;;;1.63;;
1537;SDS011;12022;52.266;10.522;2022-07-06T10:17:53;3.23;;;3.23;;
1537;SDS011;12022;52.266;10.522;2022-07-06T10:20:22;1.80;;;1.80;;
1537;SDS011;12022;52.266;10.522;2022-07-06T10:22:49;1.40;;;1.40;;
1537;SDS011;12022;52.266;10.522;2022-07-06T10:25:17;2.23;;;2.23;;
1537;SDS011;12022;52.266;10.522;2022-07-06T10:27:46;1.70;;;1.70;;
1537;SDS011;12022;52.266;10.522;2022-07-06T10:30:14;1.70;;;1.70;;
1537;SDS011;12022;52.266;10.522;2022-07-06T10:32:43;1.57;;;1.57;;
1537;SDS011;12022;52.266;10.522;2022-07-06T10:35:13;1.40;;;1.40;;
1537;SDS011;12022;52.266;10.522;2022-07-06T10:37:41;1.90;;;1.90;;
1537;SDS011;12022;52.266;10.522;2022-07-06T10:40:10;1.70;;;1.70;;
1537;SDS011;12022;52.266;10.522;2022-07-06T10:43:01;2.03;;;2.03;;
1537;SDS011;12022;52.266;10.522;2022-07-06T10:50:38;2.60;;;2.60;;
1537;SDS011;12022;52.266;10.522;2022-07-06T10:53:10;1.10;;;1.10;;
1537;SDS011;12022;52.266;10.522;2022-07-06T10:55:39;0.90;;;0.90;;
1537;SDS011;12022;52.266;10.522;2022-07-06T10:58:13;0.90;;;0.90;;
1537;SDS011;12022;52.266;10.522;2022-07-06T11:00:48;1.40;;;1.40;;
1537;SDS011;12022;52.266;10.522;2022-07-06T11:03:39;0.80;;;0.80;;
1537;SDS011;12022;52.266;10.522;2022-07-06T11:06:13;0.83;;;0.83;;
1537;SDS011;12022;52.266;10.522;2022-07-06T11:11:20;0.70;;;0.70;;
1537;SDS011;12022;52.266;10.522;2022-07-06T11:13:53;0.80;;;0.80;;
1537;SDS011;12022;52.266;10.522;2022-07-06T11:19:17;0.90;;;0.90;;
1537;SDS011;12022;52.266;10.522;2022-07-06T11:24:16;0.80;;;0.80;;
1537;SDS011;12022;52.266;10.522;2022-07-06T11:26:44;0.90;;;0.90;;
1537;SDS011;12022;52.266;10.522;2022-07-06T11:29:15;1.40;;;1.40;;
1537;SDS011;12022;52.266;10.522;2022-07-06T11:31:45;1.37;;;1.37;;
1537;SDS011;12022;52.266;10.522;2022-07-06T11:34:13;0.60;;;0.60;;
1537;SDS011;12022;52.266;10.522;2022-07-06T11:36:49;0.90;;;0.90;;
1537;SDS011;12022;52.266;10.522;2022-07-06T11:39:21;0.60;;;0.60;;
1537;SDS011;12022;52.266;10.522;2022-07-06T11:41:48;0.73;;;0.73;;
1537;SDS011;12022;52.266;10.522;2022-07-06T11:44:17;0.70;;;0.70;;
1537;SDS011;12022;52.266;10.522;2022-07-06T11:46:44;0.70;;;0.70;;
1537;SDS011;12022;52.266;10.522;2022-07-06T11:49:11;0.70;;;0.70;;
1537;SDS011;12022;52.266;10.522;2022-07-06T11:51:39;0.60;;;0.60;;
1537;SDS011;12022;52.266;10.522;2022-07-06T11:54:11;0.60;;;0.60;;
1537;SDS011;12022;52.266;10.522;2022-07-06T11:56:56;0.63;;;0.63;;
1537;SDS011;12022;52.266;10.522;2022-07-06T11:59:28;1.13;;;1.13;;
1537;SDS011;12022;52.266;10.522;2022-07-06T12:02:03;0.60;;;0.60;;
1537;SDS011;12022;52.266;10.522;2022-07-06T12:04:38;0.60;;;0.60;;
1537;SDS011;12022;52.266;10.522;2022-07-06T12:07:11;0.63;;;0.63;;
1537;SDS011;12022;52.266;10.522;2022-07-06T12:09:40;0.73;;;0.73;;
1537;SDS011;12022;52.266;10.522;2022-07-06T12:12:09;1.10;;;1.10;;
1537;SDS011;12022;52.266;10.522;2022-07-06T12:14:38;0.87;;;0.87;;
1537;SDS011;12022;52.266;10.522;2022-07-06T12:17:07;1.20;;;1.20;;
1537;SDS011;12022;52.266;10.522;2022-07-06T12:19:36;0.70;;;0.70;;
1537;SDS011;12022;52.266;10.522;2022-07-06T12:22:04;1.00;;;1.00;;
1537;SDS011;12022;52.266;10.522;2022-07-06T12:24:32;1.03;;;1.03;;
1537;SDS011;12022;52.266;10.522;2022-07-06T12:27:11;0.50;;;0.50;;
1537;SDS011;12022;52.266;10.522;2022-07-06T12:29:43;0.80;;;0.80;;
1537;SDS011;12022;52.266;10.522;2022-07-06T12:32:14;1.20;;;1.20;;
1537;SDS011;12022;52.266;10.522;2022-07-06T12:34:41;1.00;;;1.00;;
1537;SDS011;12022;52.266;10.522;2022-07-06T12:37:09;0.90;;;0.90;;
1537;SDS011;12022;52.266;10.522;2022-07-06T12:39:42;1.60;;;1.60;;
1537;SDS011;12022;52.266;10.522;2022-07-06T12:42:12;0.80;;;0.80;;
1537;SDS011;12022;52.266;10.522;2022-07-06T12:44:46;1.00;;;1.00;;
1537;SDS011;12022;52.266;10.522;2022-07-06T12:47:21;0.80;;;0.80;;
1537;SDS011;12022;52.266;10.522;2022-07-06T12:50:03;0.70;;;0.70;;
1537;SDS011;12022;52.266;10.522;2022-07-06T12:52:32;0.87;;;0.87;;
1537;SDS011;12022;52.266;10.522;2022-07-06T12:55:00;0.77;;;0.77;;
1537;SDS011;12022;52.266;10.522;2022-07-06T12:57:43;0.63;;;0.63;;
1537;SDS011;12022;52.266;10.522;2022-07-06T13:00:13;0.70;;;0.70;;
1537;SDS011;12022;52.266;10.522;2022-07-06T13:02:43;1.30;;;1.30;;
1537;SDS011;12022;52.266;10.522;2022-07-06T13:05:32;1.10;;;1.10;;
1537;SDS011;12022;52.266;10.522;2022-07-06T13:08:00;1.13;;;1.13;;
1537;SDS011;12022;52.266;10.522;2022-07-06T13:10:28;1.40;;;1.40;;
1537;SDS011;12022;52.266;10.522;2022-07-06T13:12:57;1.00;;;1.00;;
1537;SDS011;12022;52.266;10.522;2022-07-06T13:15:24;0.90;;;0.90;;
1537;SDS011;12022;52.266;10.522;2022-07-06T13:17:52;0.67;;;0.67;;
1537;SDS011;12022;52.266;10.522;2022-07-06T13:20:19;0.83;;;0.83;;
1537;SDS011;12022;52.266;10.522;2022-07-06T13:22:46;1.30;;;1.30;;
1537;SDS011;12022;52.266;10.522;2022-07-06T13:25:13;1.10;;;1.10;;
1537;SDS011;12022;52.266;10.522;2022-07-06T13:27:40;2.20;;;2.20;;
1537;SDS011;12022;52.266;10.522;2022-07-06T13:30:07;2.73;;;2.73;;
1537;SDS011;12022;52.266;10.522;2022-07-06T13:32:35;1.37;;;1.37;;
1537;SDS011;12022;52.266;10.522;2022-07-06T13:35:02;1.63;;;1.63;;
1537;SDS011;12022;52.266;10.522;2022-07-06T13:37:29;1.50;;;1.50;;
1537;SDS011;12022;52.266;10.522;2022-07-06T13:39:56;1.20;;;1.20;;
1537;SDS011;12022;52.266;10.522;2022-07-06T13:42:23;2.00;;;2.00;;
1537;SDS011;12022;52.266;10.522;2022-07-06T13:44:50;1.57;;;1.57;;
1537;SDS011;12022;52.266;10.522;2022-07-06T13:47:17;2.23;;;2.23;;
1537;SDS011;12022;52.266;10.522;2022-07-06T13:49:44;1.60;;;1.60;;
1537;SDS011;12022;52.266;10.522;2022-07-06T13:52:14;1.20;;;1.20;;
1537;SDS011;12022;52.266;10.522;2022-07-06T13:54:41;0.80;;;0.80;;
1537;SDS011;12022;52.266;10.522;2022-07-06T13:57:08;0.90;;;0.90;;
1537;SDS011;12022;52.266;10.522;2022-07-06T13:59:35;1.40;;;1.40;;
1537;SDS011;12022;52.266;10.522;2022-07-06T14:02:02;0.60;;;0.60;;
1537;SDS011;12022;52.266;10.522;2022-07-06T14:04:30;1.03;;;1.03;;
1537;SDS011;12022;52.266;10.522;2022-07-06T14:06:57;2.13;;;2.13;;
1537;SDS011;12022;52.266;10.522;2022-07-06T14:09:24;1.27;;;1.27;;
1537;SDS011;12022;52.266;10.522;2022-07-06T14:11:51;1.00;;;1.00;;
1537;SDS011;12022;52.266;10.522;2022-07-06T14:14:18;1.57;;;1.57;;
1537;SDS011;12022;52.266;10.522;2022-07-06T14:16:44;1.60;;;1.60;;
1537;SDS011;12022;52.266;10.522;2022-07-06T14:19:12;2.30;;;2.30;;
1537;SDS011;12022;52.266;10.522;2022-07-06T14:21:46;2.53;;;2.53;;
1537;SDS011;12022;52.266;10.522;2022-07-06T14:24:13;1.97;;;1.97;;
1537;SDS011;12022;52.266;10.522;2022-07-06T14:26:40;2.23;;;2.23;;
1537;SDS011;12022;52.266;10.522;2022-07-06T14:29:07;1.80;;;1.80;;
1537;SDS011;12022;52.266;10.522;2022-07-06T14:31:34;2.30;;;2.30;;
1537;SDS011;12022;52.266;10.522;2022-07-06T14:34:01;2.27;;;2.27;;
1537;SDS011;12022;52.266;10.522;2022-07-06T14:36:28;1.10;;;1.10;;
1537;SDS011;12022;52.266;10.522;2022-07-06T14:38:55;1.10;;;1.10;;
1537;SDS011;12022;52.266;10.522;2022-07-06T14:41:22;0.80;;;0.80;;
1537;SDS011;12022;52.266;10.522;2022-07-06T14:43:49;1.33;;;1.33;;
1537;SDS011;12022;52.266;10.522;2022-07-06T14:46:16;1.50;;;1.50;;
1537;SDS011;12022;52.266;10.522;2022-07-06T14:48:43;2.10;;;2.10;;
1537;SDS011;12022;52.266;10.522;2022-07-06T14:51:10;1.77;;;1.77;;
1537;SDS011;12022;52.266;10.522;2022-07-06T14:53:38;1.07;;;1.07;;
1537;SDS011;12022;52.266;10.522;2022-07-06T14:56:05;1.50;;;1.50;;
1537;SDS011;12022;52.266;10.522;2022-07-06T14:58:32;1.70;;;1.70;;
1537;SDS011;12022;52.266;10.522;2022-07-06T15:00:59;1.30;;;1.30;;
1537;SDS011;12022;52.266;10.522;2022-07-06T15:03:27;0.83;;;0.83;;
1537;SDS011;12022;52.266;10.522;2022-07-06T15:05:56;2.07;;;2.07;;
1537;SDS011;12022;52.266;10.522;2022-07-06T15:08:24;1.00;;;1.00;;